Time;durP1;ratioP1;P1;durP2;ratioP2;P2;SDS_P1;SDS_P2;PMS_P1;PMS_P2;Temp;Humidity;BMP_temperature;BMP_pressure;BME280_temperature;BME280_humidity;BME280_pressure;Samples;Min_cycle;Max_cycle;Signal;HPM_P1;HPM_P2
2022/03/09 00:00:28;;;;;;;;;58.50;45.50;;;;;11.46;39.07;101314.94;2121849;27;47594;-59
2022/03/09 00:01:29;;;;;;;;;53.25;43.75;;;;;11.45;39.13;101308.75;2112642;27;47221;-57
2022/03/09 00:02:30;;;;;;;;;55.00;44.20;;;;;11.45;39.16;101310.53;2112790;27;48082;-59
2022/03/09 00:03:30;;;;;;;;;58.25;45.50;;;;;11.44;39.22;101309.66;2121745;27;47799;-59
2022/03/09 00:04:31;;;;;;;;;51.75;43.25;;;;;11.44;38.96;101306.13;2121907;27;47860;-58
2022/03/09 00:05:31;;;;;;;;;49.25;40.50;;;;;11.42;39.15;101316.75;2122045;27;46613;-60
2022/03/09 00:06:32;;;;;;;;;52.50;42.50;;;;;11.42;39.43;101311.44;2122057;27;47398;-59
2022/03/09 00:07:32;;;;;;;;;57.25;45.75;;;;;11.40;39.36;101307.06;2121915;27;47505;-60
2022/03/09 00:08:33;;;;;;;;;58.25;46.25;;;;;11.39;39.49;101302.66;2121036;27;47528;-59
2022/03/09 00:09:34;;;;;;;;;52.75;43.50;;;;;11.38;39.22;101301.75;2112740;27;48341;-59
2022/03/09 00:10:34;;;;;;;;;51.50;43.25;;;;;11.38;39.54;101306.19;2118529;27;47834;-57
2022/03/09 00:11:34;;;;;;;;;52.00;42.50;;;;;11.37;39.22;101307.09;2130447;27;47456;-58
2022/03/09 00:12:35;;;;;;;;;55.00;43.50;;;;;11.38;39.27;101308.88;2130511;27;47757;-59
2022/03/09 00:13:35;;;;;;;;;54.75;45.00;;;;;11.37;39.62;101305.31;2130385;27;47460;-58
2022/03/09 00:14:36;;;;;;;;;58.25;46.00;;;;;11.38;39.37;101308.88;2121485;27;47602;-59
2022/03/09 00:15:36;;;;;;;;;54.00;43.75;;;;;11.39;39.41;101313.28;2113765;27;47428;-59
2022/03/09 00:16:37;;;;;;;;;57.50;46.75;;;;;11.37;39.32;101310.63;2124375;27;47835;-59
2022/03/09 00:17:37;;;;;;;;;53.00;42.75;;;;;11.37;39.47;101315.09;2130715;27;46277;-61
2022/03/09 00:18:37;;;;;;;;;58.50;45.25;;;;;11.36;39.50;101313.31;2130347;27;47211;-58
2022/03/09 00:19:38;;;;;;;;;53.50;44.25;;;;;11.36;39.75;101313.31;2127761;27;47959;-58
2022/03/09 00:20:38;;;;;;;;;56.00;46.25;;;;;11.35;39.51;101306.25;2122094;27;46529;-60
2022/03/09 00:21:39;;;;;;;;;51.75;41.75;;;;;11.33;39.52;101310.72;2109148;27;47678;-58
2022/03/09 00:22:39;;;;;;;;;54.75;43.75;;;;;11.31;39.67;101313.41;2112177;27;48047;-60
2022/03/09 00:23:40;;;;;;;;;54.25;44.25;;;;;11.31;39.56;101305.44;2121853;27;47872;-60
2022/03/09 00:24:40;;;;;;;;;56.75;47.00;;;;;11.29;39.61;101307.22;2124903;27;47591;-59
2022/03/09 00:25:41;;;;;;;;;56.00;45.75;;;;;11.29;39.34;101303.69;2130441;27;47358;-59
2022/03/09 00:26:41;;;;;;;;;59.75;47.25;;;;;11.29;39.44;101314.31;2122662;27;47752;-60
2022/03/09 00:27:41;;;;;;;;;55.00;44.25;;;;;11.29;39.59;101311.66;2121641;27;47615;-58
2022/03/09 00:28:42;;;;;;;;;57.25;46.25;;;;;11.28;39.76;101313.44;2121982;27;47881;-60
2022/03/09 00:29:42;;;;;;;;;59.25;45.75;;;;;11.28;39.88;101313.44;2121706;27;48080;-59
2022/03/09 00:30:43;;;;;;;;;52.75;41.00;;;;;11.28;39.84;101309.91;2121692;27;47418;-59
2022/03/09 00:31:43;;;;;;;;;50.75;41.75;;;;;11.26;39.72;101307.28;2121951;27;47411;-59
2022/03/09 00:32:44;;;;;;;;;59.25;46.50;;;;;11.27;39.70;101314.34;2126324;27;47880;-57
2022/03/09 00:33:44;;;;;;;;;56.75;46.50;;;;;11.26;39.62;101312.59;2130246;27;48221;-58
2022/03/09 00:34:45;;;;;;;;;60.25;47.00;;;;;11.28;39.62;101317.88;2130420;27;46551;-59
2022/03/09 00:35:45;;;;;;;;;56.25;47.00;;;;;11.28;39.96;101320.53;2130489;27;47961;-58
2022/03/09 00:36:46;;;;;;;;;57.25;45.25;;;;;11.28;39.97;101321.41;2130552;27;47275;-57
2022/03/09 00:37:46;;;;;;;;;59.00;47.75;;;;;11.27;39.81;101318.78;2130308;27;48059;-57
2022/03/09 00:38:47;;;;;;;;;55.50;46.25;;;;;11.27;39.72;101327.63;2120965;27;47295;-58
2022/03/09 00:39:47;;;;;;;;;55.00;45.25;;;;;11.28;39.88;101318.75;2121231;27;47579;-59
2022/03/09 00:40:50;;;;;;;;;59.75;48.00;;;;;11.28;39.66;101321.41;2130262;27;47793;-59
2022/03/09 00:41:50;;;;;;;;;53.00;43.20;;;;;11.29;39.82;101319.63;2130298;27;48286;-58
2022/03/09 00:42:50;;;;;;;;;62.25;48.00;;;;;11.29;39.89;101327.59;2130274;27;47497;-58
2022/03/09 00:43:51;;;;;;;;;50.00;39.75;;;;;11.28;39.74;101332.03;2118588;27;47572;-57
2022/03/09 00:44:51;;;;;;;;;56.75;46.50;;;;;11.29;40.01;101330.25;2112579;27;48060;-58
2022/03/09 00:45:51;;;;;;;;;55.75;46.75;;;;;11.28;39.59;101326.72;2120311;27;45948;-59
2022/03/09 00:46:52;;;;;;;;;57.75;46.50;;;;;11.28;39.89;101329.38;2120424;27;48112;-59
2022/03/09 00:47:52;;;;;;;;;56.00;46.75;;;;;11.30;39.95;101332.00;2120578;27;47342;-57
2022/03/09 00:48:53;;;;;;;;;61.00;47.25;;;;;11.28;39.94;101331.16;2111518;27;47710;-57
2022/03/09 00:49:53;;;;;;;;;54.00;44.25;;;;;11.27;40.26;101338.25;2111690;27;47902;-59
2022/03/09 00:50:54;;;;;;;;;56.75;46.25;;;;;11.26;39.73;101335.63;2127363;27;47719;-59
2022/03/09 00:51:54;;;;;;;;;52.25;43.75;;;;;11.24;39.89;101332.97;2122531;27;48161;-57
2022/03/09 00:52:54;;;;;;;;;61.00;46.50;;;;;11.22;39.95;101344.53;2120381;27;47697;-59
2022/03/09 00:53:55;;;;;;;;;58.25;47.25;;;;;11.21;39.84;101346.31;2120742;27;48310;-59
2022/03/09 00:54:56;;;;;;;;;62.00;49.00;;;;;11.20;40.01;101342.78;2120542;27;47286;-56
2022/03/09 00:55:56;;;;;;;;;59.00;47.50;;;;;11.22;39.89;101341.88;2120893;27;47568;-56
2022/03/09 00:56:56;;;;;;;;;56.00;46.25;;;;;11.22;39.93;101339.22;2120683;27;47187;-57
2022/03/09 00:57:57;;;;;;;;;54.75;45.00;;;;;11.20;39.74;101342.78;2106715;27;47891;-58
2022/03/09 00:58:57;;;;;;;;;52.25;44.50;;;;;11.20;40.28;101334.81;2112109;27;47913;-59
2022/03/09 00:59:58;;;;;;;;;61.00;47.50;;;;;11.20;40.02;101348.09;2122081;27;47546;-57
2022/03/09 01:00:58;;;;;;;;;56.75;46.00;;;;;11.20;39.84;101341.91;2120387;27;48172;-58
2022/03/09 01:01:58;;;;;;;;;60.50;47.25;;;;;11.20;39.93;101345.44;2120593;27;47789;-59
2022/03/09 01:02:59;;;;;;;;;58.75;49.00;;;;;11.21;39.91;101341.00;2120620;27;47479;-59
2022/03/09 01:03:59;;;;;;;;;55.75;44.75;;;;;11.19;40.04;101337.50;2120892;27;47652;-59
2022/03/09 01:05:00;;;;;;;;;61.50;47.25;;;;;11.20;40.16;101333.94;2129216;27;47577;-57
2022/03/09 01:06:00;;;;;;;;;51.75;42.50;;;;;11.18;40.02;101336.63;2126313;27;47970;-56
2022/03/09 01:07:02;;;;;;;;;60.25;47.25;;;;;11.19;40.40;101338.38;2120379;27;47432;-59
2022/03/09 01:08:03;;;;;;;;;54.20;45.40;;;;;11.19;39.93;101340.16;2120417;27;47650;-58
2022/03/09 01:09:03;;;;;;;;;55.75;45.50;;;;;11.19;40.23;101340.16;2120394;27;47882;-58
2022/03/09 01:10:05;;;;;;;;;65.00;48.75;;;;;11.21;40.04;101343.66;2120756;27;47561;-59
2022/03/09 01:11:05;;;;;;;;;60.20;48.00;;;;;11.21;40.43;101343.66;2124530;27;47563;-59
2022/03/09 01:12:07;;;;;;;;;57.75;46.25;;;;;11.22;40.12;101341.88;2129196;27;48222;-57
2022/03/09 01:13:07;;;;;;;;;59.40;46.40;;;;;11.22;40.34;101339.22;2120481;27;47875;-58
2022/03/09 01:14:08;;;;;;;;;61.50;49.50;;;;;11.23;40.27;101343.63;2120813;27;47736;-57
2022/03/09 01:15:08;;;;;;;;;58.00;46.50;;;;;11.23;40.13;101346.28;2120515;27;47392;-58
2022/03/09 01:16:09;;;;;;;;;57.25;46.75;;;;;11.23;40.21;101341.84;2122014;27;47606;-57
2022/03/09 01:17:09;;;;;;;;;58.50;47.25;;;;;11.24;40.37;101348.06;2128589;27;47709;-58
2022/03/09 01:18:10;;;;;;;;;58.00;46.75;;;;;11.24;40.11;101343.63;2121310;27;47907;-57
2022/03/09 01:19:10;;;;;;;;;58.50;48.25;;;;;11.24;40.21;101346.28;2121835;27;47618;-57
2022/03/09 01:20:11;;;;;;;;;61.00;47.00;;;;;11.24;40.30;101348.06;2121439;27;46302;-58
2022/03/09 01:21:11;;;;;;;;;58.75;47.00;;;;;11.24;40.09;101345.41;2121839;27;47539;-58
2022/03/09 01:22:12;;;;;;;;;58.00;47.25;;;;;11.24;40.20;101348.06;2103089;28;47696;-57
2022/03/09 01:23:12;;;;;;;;;56.75;48.00;;;;;11.24;40.40;101350.72;2109915;27;47494;-58
2022/03/09 01:24:13;;;;;;;;;54.50;43.75;;;;;11.23;40.41;101341.84;2128369;27;47961;-58
2022/03/09 01:25:13;;;;;;;;;56.75;47.00;;;;;11.23;40.48;101348.94;2129143;27;47380;-57
2022/03/09 01:26:14;;;;;;;;;61.25;47.00;;;;;11.22;40.41;101345.41;2125043;27;47710;-57
2022/03/09 01:27:14;;;;;;;;;57.75;46.75;;;;;11.20;40.01;101350.75;2121559;27;47530;-57
2022/03/09 01:28:15;;;;;;;;;56.75;47.00;;;;;11.19;40.35;101351.66;2121415;27;47391;-58
2022/03/09 01:29:15;;;;;;;;;62.00;49.75;;;;;11.19;40.37;101349.00;2121398;27;47579;-58
2022/03/09 01:30:16;;;;;;;;;57.75;46.75;;;;;11.19;40.43;101349.00;2121499;27;47392;-57
2022/03/09 01:31:16;;;;;;;;;56.75;46.25;;;;;11.20;40.37;101349.88;2121608;27;46545;-57
2022/03/09 01:32:17;;;;;;;;;60.50;48.00;;;;;11.18;40.21;101352.56;2125988;27;46924;-58
2022/03/09 01:33:17;;;;;;;;;56.25;46.75;;;;;11.17;40.34;101349.91;2130639;27;47231;-58
2022/03/09 01:34:18;;;;;;;;;62.75;49.25;;;;;11.17;40.34;101355.22;2130151;27;47462;-59
2022/03/09 01:35:18;;;;;;;;;57.75;46.75;;;;;11.15;40.35;101355.25;2130038;27;47161;-57
2022/03/09 01:36:19;;;;;;;;;59.50;48.50;;;;;11.14;40.32;101340.19;2130054;27;47578;-58
2022/03/09 01:37:19;;;;;;;;;62.25;48.50;;;;;11.14;40.30;101355.25;2130135;27;47758;-59
2022/03/09 01:38:20;;;;;;;;;62.50;48.75;;;;;11.13;40.65;101350.84;2130413;27;48088;-59
2022/03/09 01:39:20;;;;;;;;;55.50;45.25;;;;;11.13;40.64;101358.81;2130299;27;47630;-57
2022/03/09 01:40:21;;;;;;;;;60.25;48.00;;;;;11.13;40.56;101354.38;2129962;27;47247;-59
2022/03/09 01:41:21;;;;;;;;;49.50;39.50;;;;;11.15;40.48;101357.00;2130525;27;48132;-57
2022/03/09 01:42:22;;;;;;;;;63.75;50.50;;;;;11.15;40.42;101351.69;2125232;27;47526;-58
2022/03/09 01:43:23;;;;;;;;;64.50;49.00;;;;;11.15;40.49;101346.38;2121234;27;47725;-59
2022/03/09 01:44:24;;;;;;;;;58.50;48.25;;;;;11.16;40.59;101354.34;2121462;27;47127;-60
2022/03/09 01:45:25;;;;;;;;;61.40;49.00;;;;;11.15;40.60;101347.28;2121688;27;47599;-57
2022/03/09 01:46:25;;;;;;;;;64.75;49.25;;;;;11.16;40.59;101354.34;2120936;27;48657;-59
2022/03/09 01:47:26;;;;;;;;;58.50;47.50;;;;;11.16;40.57;101348.16;2121301;27;47712;-58
2022/03/09 01:48:26;;;;;;;;;58.75;47.50;;;;;11.15;40.61;101344.63;2112106;27;47643;-58
2022/03/09 01:49:26;;;;;;;;;58.50;46.75;;;;;11.16;40.45;101345.50;2116063;27;47384;-58
2022/03/09 01:50:27;;;;;;;;;60.00;46.25;;;;;11.16;40.68;101353.47;2129618;27;47393;-57
2022/03/09 01:51:27;;;;;;;;;61.25;49.25;;;;;11.16;40.76;101346.38;2122674;27;47280;-57
2022/03/09 01:52:28;;;;;;;;;61.00;47.25;;;;;11.16;40.82;101353.47;2123779;27;46433;-57
2022/03/09 01:53:28;;;;;;;;;55.75;46.75;;;;;11.15;40.53;101343.75;2130010;27;46582;-58
2022/03/09 01:54:30;;;;;;;;;54.25;45.25;;;;;11.16;40.69;101341.06;2124312;27;47354;-59
2022/03/09 01:55:30;;;;;;;;;57.20;47.20;;;;;11.16;40.63;101340.19;2121233;27;48212;-59
2022/03/09 01:56:31;;;;;;;;;62.50;48.75;;;;;11.15;40.74;101339.28;2121371;27;47390;-58
2022/03/09 01:57:32;;;;;;;;;57.50;46.00;;;;;11.16;40.81;101337.53;2121007;27;47738;-59
2022/03/09 01:58:32;;;;;;;;;61.25;49.50;;;;;11.16;40.88;101342.84;2112327;27;47632;-58
2022/03/09 01:59:33;;;;;;;;;52.25;42.75;;;;;11.15;40.99;101336.63;2119618;27;47436;-56
2022/03/09 02:00:33;;;;;;;;;62.00;49.00;;;;;11.16;41.05;101341.06;2129898;27;47836;-58
2022/03/09 02:01:34;;;;;;;;;56.25;45.25;;;;;11.15;40.74;101338.41;2129544;27;47522;-59
2022/03/09 02:02:35;;;;;;;;;62.60;49.20;;;;;11.14;40.98;101334.88;2124132;27;47867;-58
2022/03/09 02:03:35;;;;;;;;;61.00;49.00;;;;;11.15;40.94;101338.41;2121241;27;47508;-57
2022/03/09 02:04:36;;;;;;;;;55.50;45.25;;;;;11.15;40.89;101341.97;2121330;27;47641;-57
2022/03/09 02:05:36;;;;;;;;;61.25;48.50;;;;;11.14;41.05;101337.53;2121042;27;47364;-57
2022/03/09 02:06:38;;;;;;;;;58.00;46.00;;;;;11.14;40.86;101336.66;2121511;27;47794;-58
2022/03/09 02:10:19;;;;;;;;;58.20;48.80;;;;;11.14;40.84;101336.66;2121240;27;47204;-58
2022/03/09 02:11:21;;;;;;;;;56.40;44.80;;;;;11.15;41.13;101335.75;2121437;27;47718;-58
2022/03/09 02:12:21;;;;;;;;;52.40;41.80;;;;;11.14;41.09;101328.69;2121635;27;47679;-58
2022/03/09 02:13:22;;;;;;;;;53.25;45.25;;;;;11.15;41.14;101335.75;2121093;27;47460;-57
2022/03/09 02:14:37;;;;;;;;;53.00;44.25;;;;;11.14;41.60;101332.22;2121507;27;48050;-58
2022/03/09 02:15:41;;;;;;;;;60.00;47.20;;;;;11.15;41.40;101333.09;2121129;27;48147;-58
2022/03/09 02:16:42;;;;;;;;;58.00;45.80;;;;;11.15;41.38;101330.44;2121287;27;47446;-59
2022/03/09 02:17:42;;;;;;;;;57.75;46.00;;;;;11.15;41.41;101335.75;2126521;27;47589;-57
2022/03/09 02:18:42;;;;;;;;;55.00;43.00;;;;;11.15;41.65;101333.09;2130504;27;45531;-58
2022/03/09 02:19:46;;;;;;;;;53.50;44.50;;;;;11.15;41.54;101328.69;2129608;27;47724;-60
2022/03/09 02:20:49;;;;;;;;;52.80;44.20;;;;;11.16;41.37;101332.22;2120893;27;47851;-59
2022/03/09 02:22:01;;;;;;;;;60.20;46.80;;;;;11.15;41.87;101331.31;2121005;27;48239;-58
2022/03/09 02:23:03;;;;;;;;;50.00;41.20;;;;;11.16;41.79;101326.91;2120595;27;47500;-58
2022/03/09 02:24:04;;;;;;;;;55.20;45.20;;;;;11.16;41.91;101326.91;2115917;27;47635;-57
2022/03/09 02:25:15;;;;;;;;;57.75;46.50;;;;;11.16;41.80;101325.13;2128020;27;47697;-59
2022/03/09 02:26:15;;;;;;;;;55.20;45.00;;;;;11.17;41.99;101331.31;2121118;27;48154;-58
2022/03/09 02:27:17;;;;;;;;;52.00;43.00;;;;;11.16;42.05;101329.56;2121058;27;47664;-57
2022/03/09 02:28:18;;;;;;;;;52.40;43.80;;;;;11.15;42.14;101326.03;2121732;27;47905;-57
2022/03/09 02:29:18;;;;;;;;;53.25;44.50;;;;;11.16;42.26;101329.56;2121210;27;47941;-58
2022/03/09 02:30:19;;;;;;;;;56.00;45.25;;;;;11.17;42.16;101333.97;2121046;27;47479;-58
2022/03/09 02:31:20;;;;;;;;;55.00;43.60;;;;;11.18;42.26;101327.78;2102879;28;47750;-59
2022/03/09 02:32:21;;;;;;;;;51.50;42.50;;;;;11.18;42.21;101330.44;2110325;27;47813;-58
2022/03/09 02:33:22;;;;;;;;;58.80;47.00;;;;;11.17;42.32;101331.31;2131118;27;48158;-56
2022/03/09 02:34:22;;;;;;;;;57.00;46.25;;;;;11.17;42.44;101328.66;2131615;27;47430;-57
2022/03/09 02:35:23;;;;;;;;;56.50;47.25;;;;;11.17;42.48;101329.53;2131429;27;47464;-56
2022/03/09 02:36:23;;;;;;;;;50.25;42.00;;;;;11.18;42.71;101335.75;2131358;27;47091;-58
2022/03/09 02:37:23;;;;;;;;;53.25;45.25;;;;;11.17;42.71;101334.84;2122773;27;48028;-58
2022/03/09 02:38:24;;;;;;;;;52.25;44.75;;;;;11.18;42.97;101327.78;2099343;28;47192;-58
2022/03/09 02:39:24;;;;;;;;;56.00;45.00;;;;;11.18;42.57;101327.78;2104556;28;47790;-58
2022/03/09 02:40:25;;;;;;;;;55.00;44.25;;;;;11.18;43.23;101330.44;2124509;27;48049;-58
2022/03/09 02:41:28;;;;;;;;;58.00;46.50;;;;;11.19;43.21;101332.19;2122386;27;47196;-58
2022/03/09 02:42:28;;;;;;;;;51.40;43.40;;;;;11.19;43.30;101330.41;2122333;27;47754;-56
2022/03/09 02:43:29;;;;;;;;;47.50;41.00;;;;;11.19;43.41;101334.84;2122765;27;47784;-57
2022/03/09 02:44:30;;;;;;;;;52.00;42.25;;;;;11.21;43.29;101327.72;2122645;27;47310;-58
2022/03/09 02:45:30;;;;;;;;;53.00;44.00;;;;;11.22;43.54;101329.47;2122650;27;47479;-56
2022/03/09 02:46:31;;;;;;;;;52.75;42.00;;;;;11.22;43.92;101325.94;2122357;27;48079;-56
2022/03/09 02:47:31;;;;;;;;;50.50;40.50;;;;;11.22;44.00;101331.25;2128690;27;46399;-57
2022/03/09 02:48:32;;;;;;;;;48.00;41.00;;;;;11.22;43.94;101336.56;2130229;27;47280;-58
2022/03/09 02:49:33;;;;;;;;;47.50;38.25;;;;;11.23;44.46;101338.31;2122647;27;47577;-58
2022/03/09 02:50:33;;;;;;;;;43.00;36.60;;;;;11.23;44.65;101335.66;2122543;27;48160;-56
2022/03/09 02:51:33;;;;;;;;;46.25;40.00;;;;;11.22;44.66;101332.13;2125340;27;47355;-57
2022/03/09 02:52:38;;;;;;;;;44.75;37.75;;;;;11.23;44.83;101336.53;2130591;27;47386;-58
2022/03/09 02:53:39;;;;;;;;;42.80;37.20;;;;;11.23;44.67;101339.19;2128125;27;48055;-57
2022/03/09 02:54:39;;;;;;;;;47.75;38.75;;;;;11.24;45.13;101337.44;2122861;27;47323;-58
2022/03/09 02:55:40;;;;;;;;;45.75;37.25;;;;;11.23;44.90;101336.53;2129236;27;47486;-57
2022/03/09 02:56:40;;;;;;;;;40.25;36.00;;;;;11.24;44.94;101338.31;2102235;28;47783;-57
2022/03/09 02:57:42;;;;;;;;;45.25;38.00;;;;;11.25;45.26;101345.38;2095774;28;46773;-58
2022/03/09 02:58:43;;;;;;;;;44.00;36.80;;;;;11.24;45.07;101343.63;2127602;27;47984;-57
2022/03/09 02:59:44;;;;;;;;;41.60;35.60;;;;;11.25;44.88;101345.38;2130838;27;48035;-57
2022/03/09 03:00:44;;;;;;;;;37.75;34.75;;;;;11.24;45.34;101346.28;2131085;27;47515;-57
2022/03/09 03:01:44;;;;;;;;;41.50;35.50;;;;;11.25;45.36;101342.72;2130563;27;47989;-59
2022/03/09 03:02:45;;;;;;;;;46.25;38.50;;;;;11.25;45.38;101345.38;2131283;27;47758;-57
2022/03/09 03:03:45;;;;;;;;;46.00;39.25;;;;;11.25;45.28;101344.50;2131055;27;47575;-57
2022/03/09 03:04:45;;;;;;;;;44.00;32.75;;;;;11.25;45.38;101349.81;2131035;27;47198;-58
2022/03/09 03:05:46;;;;;;;;;46.75;38.50;;;;;11.24;45.24;101346.28;2131363;27;45571;-56
2022/03/09 03:06:46;;;;;;;;;47.00;39.75;;;;;11.25;45.19;101352.47;2131074;27;48122;-59
2022/03/09 03:07:47;;;;;;;;;48.00;37.00;;;;;11.25;45.44;101350.69;2131343;27;47067;-57
2022/03/09 03:08:47;;;;;;;;;46.00;39.25;;;;;11.25;45.53;101349.81;2131210;27;47528;-58
2022/03/09 03:09:47;;;;;;;;;44.75;38.50;;;;;11.25;45.40;101352.47;2130895;27;47547;-59
2022/03/09 03:10:48;;;;;;;;;52.00;42.25;;;;;11.25;45.25;101358.66;2131036;27;47914;-57
2022/03/09 03:11:48;;;;;;;;;37.00;33.00;;;;;11.25;45.38;101353.34;2115227;27;47652;-58
2022/03/09 03:12:48;;;;;;;;;48.75;40.00;;;;;11.26;45.44;101356.88;2113140;27;47651;-59
2022/03/09 03:13:49;;;;;;;;;44.75;37.75;;;;;11.26;45.61;101357.75;2126461;27;48144;-58
2022/03/09 03:14:52;;;;;;;;;48.50;38.50;;;;;11.25;45.57;101358.66;2131173;27;47644;-57
2022/03/09 03:15:53;;;;;;;;;47.40;38.40;;;;;11.24;45.37;101356.91;2130695;27;47550;-57
2022/03/09 03:16:54;;;;;;;;;45.80;37.00;;;;;11.24;45.77;101350.72;2121577;27;47387;-58
2022/03/09 03:17:54;;;;;;;;;47.00;38.00;;;;;11.24;45.80;101348.94;2121970;27;48249;-58
2022/03/09 03:18:54;;;;;;;;;48.50;38.00;;;;;11.25;45.91;101355.13;2121567;27;47243;-58
2022/03/09 03:19:55;;;;;;;;;49.00;39.50;;;;;11.24;45.66;101358.69;2120744;27;47756;-57
2022/03/09 03:20:55;;;;;;;;;46.00;38.00;;;;;11.24;45.93;101351.59;2122411;27;47292;-59
2022/03/09 03:21:56;;;;;;;;;43.75;37.75;;;;;11.25;46.00;101357.78;2122304;27;47625;-58
2022/03/09 03:22:56;;;;;;;;;50.25;41.00;;;;;11.24;46.15;101354.25;2122452;27;48087;-58
2022/03/09 03:23:56;;;;;;;;;48.50;40.50;;;;;11.24;46.23;101356.03;2122428;27;47839;-58
2022/03/09 03:24:57;;;;;;;;;48.00;39.00;;;;;11.23;46.11;101349.84;2124729;27;47547;-58
2022/03/09 03:25:58;;;;;;;;;46.00;37.00;;;;;11.25;46.32;101355.13;2122476;27;46427;-59
2022/03/09 03:26:58;;;;;;;;;49.00;38.25;;;;;11.23;46.05;101347.19;2122314;27;47578;-58
2022/03/09 03:27:58;;;;;;;;;42.50;35.75;;;;;11.23;46.22;101349.84;2122268;27;47306;-58
2022/03/09 03:28:59;;;;;;;;;48.00;37.75;;;;;11.23;46.15;101344.50;2122127;27;48081;-59
2022/03/09 03:29:59;;;;;;;;;48.25;40.50;;;;;11.23;46.21;101348.94;2122234;27;47491;-59
2022/03/09 03:31:00;;;;;;;;;53.25;41.75;;;;;11.23;46.24;101349.84;2121997;27;48336;-59
2022/03/09 03:32:00;;;;;;;;;40.25;35.50;;;;;11.22;45.99;101348.06;2122447;27;47348;-57
2022/03/09 03:33:00;;;;;;;;;45.50;39.00;;;;;11.22;46.34;101345.41;2122752;27;45293;-57
2022/03/09 03:34:01;;;;;;;;;49.25;41.00;;;;;11.21;46.15;101343.66;2122395;27;47378;-58
2022/03/09 03:35:02;;;;;;;;;48.75;39.25;;;;;11.20;46.62;101336.59;2122201;27;47581;-57
2022/03/09 03:36:03;;;;;;;;;42.80;37.00;;;;;11.20;46.40;101339.25;2114446;27;46155;-58
2022/03/09 03:37:05;;;;;;;;;49.25;41.00;;;;;11.19;46.49;101340.16;2121566;27;47665;-57
2022/03/09 03:38:06;;;;;;;;;49.40;40.60;;;;;11.19;46.19;101340.16;2125749;27;47516;-58
2022/03/09 03:39:06;;;;;;;;;47.00;37.00;;;;;11.18;46.19;101341.94;2122492;27;47766;-58
2022/03/09 03:40:08;;;;;;;;;49.00;40.75;;;;;11.18;46.19;101343.72;2122125;27;47598;-59
2022/03/09 03:41:08;;;;;;;;;44.40;37.80;;;;;11.17;46.45;101341.94;2116160;27;48065;-59
2022/03/09 03:42:08;;;;;;;;;52.75;43.75;;;;;11.16;46.33;101334.88;2121503;27;47801;-57
2022/03/09 03:43:09;;;;;;;;;52.00;42.75;;;;;11.15;46.10;101341.97;2123409;27;48406;-58
2022/03/09 03:44:10;;;;;;;;;50.00;42.00;;;;;11.14;46.17;101337.53;2122330;27;47730;-57
2022/03/09 03:45:10;;;;;;;;;55.00;43.25;;;;;11.14;46.32;101344.63;2121751;27;47490;-57
2022/03/09 03:46:10;;;;;;;;;52.25;42.00;;;;;11.13;46.45;101340.22;2122259;27;47377;-57
2022/03/09 03:47:11;;;;;;;;;53.50;42.75;;;;;11.12;46.51;101339.34;2130124;27;47780;-59
2022/03/09 03:48:11;;;;;;;;;50.25;39.25;;;;;11.12;46.58;101339.34;2131080;27;47622;-56
2022/03/09 03:49:12;;;;;;;;;46.50;38.75;;;;;11.12;46.25;101349.09;2131274;27;47485;-58
2022/03/09 03:50:12;;;;;;;;;55.75;44.75;;;;;11.11;46.39;101347.34;2130966;27;47819;-56
2022/03/09 03:51:12;;;;;;;;;53.25;43.50;;;;;11.11;46.58;101350.00;2125875;27;47688;-57
2022/03/09 03:52:13;;;;;;;;;44.00;38.75;;;;;11.10;46.49;101346.47;2122290;27;47119;-57
2022/03/09 03:53:13;;;;;;;;;52.50;43.25;;;;;11.10;46.36;101345.59;2122150;27;47910;-58
2022/03/09 03:54:14;;;;;;;;;49.50;40.00;;;;;11.09;46.39;101347.38;2121910;27;47805;-58
2022/03/09 03:55:14;;;;;;;;;52.25;43.50;;;;;11.08;46.75;101352.72;2122210;27;47980;-57
2022/03/09 03:56:15;;;;;;;;;51.00;42.25;;;;;11.06;46.43;101350.06;2121688;27;47748;-60
2022/03/09 03:57:15;;;;;;;;;50.25;42.75;;;;;11.06;46.63;101352.72;2122208;27;48201;-57
2022/03/09 03:58:15;;;;;;;;;50.75;42.50;;;;;11.05;46.80;101350.06;2121926;27;47356;-58
2022/03/09 03:59:16;;;;;;;;;45.75;39.00;;;;;11.06;46.96;101357.16;2103632;28;46148;-58
2022/03/09 04:00:17;;;;;;;;;48.00;38.75;;;;;11.05;46.88;101353.63;2103683;28;47424;-59
2022/03/09 04:01:17;;;;;;;;;46.00;38.25;;;;;11.04;47.13;101351.84;2121939;27;47609;-59
2022/03/09 04:02:17;;;;;;;;;50.25;40.75;;;;;11.04;46.86;101358.94;2121894;27;48037;-59
2022/03/09 04:03:18;;;;;;;;;50.00;41.75;;;;;11.03;46.80;101354.53;2122309;27;48007;-59
2022/03/09 04:04:18;;;;;;;;;57.50;46.50;;;;;11.03;46.63;101351.88;2121845;27;47200;-59
2022/03/09 04:05:19;;;;;;;;;52.25;44.25;;;;;11.03;46.83;101351.88;2121965;27;47686;-57
2022/03/09 04:06:19;;;;;;;;;58.50;47.25;;;;;11.03;46.85;101354.53;2109213;27;47535;-57
2022/03/09 04:07:20;;;;;;;;;55.00;43.75;;;;;11.03;46.62;101354.53;2112691;27;46802;-57
2022/03/09 04:08:20;;;;;;;;;56.50;46.25;;;;;11.02;46.80;101361.63;2130598;27;47783;-58
2022/03/09 04:09:21;;;;;;;;;50.75;41.50;;;;;11.01;47.34;101362.53;2126261;27;47531;-58
2022/03/09 04:10:21;;;;;;;;;54.50;44.25;;;;;11.01;47.08;101357.22;2122136;27;47593;-59
2022/03/09 04:11:22;;;;;;;;;53.25;43.75;;;;;11.01;47.26;101358.97;2127527;27;47956;-58
2022/03/09 04:12:23;;;;;;;;;50.75;41.00;;;;;10.98;47.02;101354.59;2128003;27;48111;-57
2022/03/09 04:13:24;;;;;;;;;52.00;44.20;;;;;10.94;46.98;101360.84;2126842;27;47574;-57
2022/03/09 04:14:24;;;;;;;;;58.25;46.00;;;;;10.91;47.07;101359.09;2130823;27;47766;-57
2022/03/09 04:15:25;;;;;;;;;54.75;45.75;;;;;10.89;47.02;101360.03;2122605;27;47673;-57
2022/03/09 04:16:25;;;;;;;;;54.25;43.50;;;;;10.86;47.10;101358.28;2121902;27;48075;-57
2022/03/09 04:17:26;;;;;;;;;54.75;43.75;;;;;10.85;46.98;101363.63;2121654;27;47645;-57
2022/03/09 04:18:26;;;;;;;;;54.75;44.50;;;;;10.83;46.97;101361.00;2128579;27;47510;-57
2022/03/09 04:19:26;;;;;;;;;58.25;47.75;;;;;10.81;46.98;101356.59;2128777;27;48090;-59
2022/03/09 04:20:27;;;;;;;;;58.75;47.75;;;;;10.78;46.83;101359.28;2122092;27;48039;-56
2022/03/09 04:21:28;;;;;;;;;57.50;46.00;;;;;10.76;46.88;101358.41;2117625;27;47620;-57
2022/03/09 04:22:28;;;;;;;;;56.50;46.00;;;;;10.73;46.71;101359.34;2119986;27;47909;-56
2022/03/09 04:23:28;;;;;;;;;57.25;45.00;;;;;10.72;46.44;101368.19;2121390;27;47683;-56
2022/03/09 04:24:29;;;;;;;;;59.25;49.00;;;;;10.70;46.80;101356.72;2123127;27;47790;-57
2022/03/09 04:25:30;;;;;;;;;64.00;50.25;;;;;10.70;46.70;101351.41;2129878;27;47654;-57
2022/03/09 04:26:31;;;;;;;;;62.50;48.00;;;;;10.71;46.56;101360.25;2130350;27;47479;-57
2022/03/09 04:27:31;;;;;;;;;65.00;47.00;;;;;10.70;46.65;101351.41;2122638;27;47660;-55
2022/03/09 04:28:33;;;;;;;;;61.75;49.50;;;;;10.70;46.82;101354.06;2121360;27;47363;-57
2022/03/09 04:29:33;;;;;;;;;61.80;48.20;;;;;10.70;46.74;101354.06;2121811;27;47924;-57
2022/03/09 04:30:34;;;;;;;;;60.50;49.75;;;;;10.70;47.03;101350.53;2121687;27;47418;-57
2022/03/09 04:31:34;;;;;;;;;62.75;51.25;;;;;10.70;46.80;101350.53;2127069;27;47397;-56
2022/03/09 04:32:35;;;;;;;;;62.00;49.75;;;;;10.70;46.55;101347.88;2123497;27;47092;-57
2022/03/09 04:33:35;;;;;;;;;56.25;46.25;;;;;10.71;46.98;101349.66;2122121;27;47704;-56
2022/03/09 04:34:36;;;;;;;;;60.50;47.25;;;;;10.71;47.05;101350.53;2121865;27;47456;-56
2022/03/09 04:35:36;;;;;;;;;53.50;44.75;;;;;10.71;47.06;101341.69;2121436;27;47557;-59
2022/03/09 04:36:37;;;;;;;;;55.50;45.25;;;;;10.71;47.19;101347.88;2122016;27;47572;-57
2022/03/09 04:37:37;;;;;;;;;49.00;40.75;;;;;10.71;47.50;101353.19;2121478;27;47238;-56
2022/03/09 04:38:37;;;;;;;;;54.00;44.75;;;;;10.70;47.66;101346.13;2122037;27;47394;-56